createdAt,value
2022-12-23T00:02:32.169Z,97947.91
2022-12-23T00:08:35.414Z,97931.47
2022-12-23T00:14:55.935Z,97932.31
2022-12-23T00:21:06.623Z,97940.84
2022-12-23T00:27:10.311Z,97939.00
2022-12-23T00:33:13.130Z,97946.19
2022-12-23T00:39:33.662Z,97946.69
2022-12-23T00:45:35.746Z,97947.38
2022-12-23T00:51:37.869Z,97946.19
2022-12-23T00:57:39.757Z,97948.28
2022-12-23T01:04:00.149Z,97948.22
2022-12-23T01:10:02.100Z,97942.34
2022-12-23T01:16:13.486Z,97936.69
2022-12-23T01:22:19.053Z,97947.97
2022-12-23T01:28:20.918Z,97943.00
2022-12-23T01:34:22.897Z,97956.22
2022-12-23T01:40:24.787Z,97963.06
2022-12-23T01:46:26.797Z,97953.91
2022-12-23T01:52:30.406Z,97956.16
2022-12-23T01:58:47.801Z,97951.84
2022-12-23T02:04:51.248Z,97960.31
2022-12-23T02:11:20.381Z,97965.88
2022-12-23T02:17:31.322Z,97967.56
2022-12-23T02:23:33.122Z,97974.91
2022-12-23T02:30:05.873Z,97991.47
2022-12-23T02:36:24.171Z,97978.13
2022-12-23T02:42:49.816Z,97984.47
2022-12-23T02:49:00.435Z,97984.47
2022-12-23T02:55:20.699Z,97983.47
2022-12-23T03:01:26.130Z,97984.50
2022-12-23T03:07:38.641Z,97996.16
2022-12-23T03:14:04.991Z,97993.72
2022-12-23T03:20:33.414Z,98002.19
2022-12-23T03:26:46.715Z,97988.00
2022-12-23T03:33:06.645Z,97968.75
2022-12-23T03:39:19.993Z,97965.78
2022-12-23T03:45:38.658Z,97971.38
2022-12-23T03:52:20.797Z,97982.50
2022-12-23T03:59:05.364Z,97977.63
2022-12-23T04:05:25.266Z,97987.66
2022-12-23T04:11:27.154Z,97985.19
2022-12-23T04:17:29.513Z,97993.19
2022-12-23T04:23:31.443Z,97995.72
2022-12-23T04:29:33.379Z,97989.44
2022-12-23T04:35:35.266Z,98002.28
2022-12-23T04:41:37.162Z,98011.91
2022-12-23T04:47:40.600Z,98029.91
2022-12-23T04:53:42.911Z,98024.22
2022-12-23T04:59:45.033Z,98020.69
2022-12-23T05:05:46.937Z,98018.75
2022-12-23T05:11:48.821Z,98017.50
2022-12-23T05:17:50.706Z,98015.88
2022-12-23T05:23:52.608Z,98013.19
2022-12-23T05:29:54.501Z,98014.38
2022-12-23T05:35:57.423Z,98016.84
2022-12-23T05:41:59.298Z,98031.84
2022-12-23T05:48:01.190Z,98036.66
2022-12-23T05:54:03.125Z,98055.91
2022-12-23T06:00:05.688Z,98056.69
2022-12-23T06:06:07.734Z,98061.53
2022-12-23T06:12:09.645Z,98077.31
2022-12-23T06:18:11.551Z,98074.47
2022-12-23T06:24:13.448Z,98076.09
2022-12-23T06:30:15.733Z,98077.19
2022-12-23T06:36:17.689Z,98079.19
2022-12-23T06:42:19.610Z,98076.91
2022-12-23T06:48:21.509Z,98082.34
2022-12-23T06:54:23.447Z,98096.28
2022-12-23T07:00:25.424Z,98107.63
2022-12-23T07:06:27.301Z,98119.25
2022-12-23T07:12:29.318Z,98120.09
2022-12-23T07:18:31.300Z,98125.75
2022-12-23T07:24:37.440Z,98130.50
2022-12-23T07:30:39.384Z,98138.25
2022-12-23T07:36:41.334Z,98163.00
2022-12-23T07:42:45.678Z,98167.03
2022-12-23T07:48:48.313Z,98162.63
2022-12-23T07:54:50.184Z,98174.88
2022-12-23T08:00:59.381Z,98162.16
2022-12-23T08:07:01.359Z,98169.69
2022-12-23T08:13:03.250Z,98170.53
2022-12-23T08:19:05.189Z,98179.66
2022-12-23T08:25:07.674Z,98184.84
2022-12-23T08:31:16.794Z,98193.84
2022-12-23T08:37:18.714Z,98197.19
2022-12-23T08:43:20.599Z,98200.47
2022-12-23T08:49:23.239Z,98224.50
2022-12-23T08:55:25.138Z,98221.72
2022-12-23T09:01:30.869Z,98225.69
2022-12-23T09:07:33.159Z,98228.25
2022-12-23T09:13:36.062Z,98230.38
2022-12-23T09:19:38.060Z,98238.56
2022-12-23T09:25:40.119Z,98231.38
2022-12-23T09:31:42.077Z,98238.00
2022-12-23T09:37:44.034Z,98231.94
2022-12-23T09:44:24.865Z,98225.34
2022-12-23T09:50:33.642Z,98239.06
2022-12-23T09:56:59.340Z,98235.19
2022-12-23T10:03:28.847Z,98232.72
2022-12-23T10:09:42.757Z,98253.28
2022-12-23T10:15:49.131Z,98240.25
2022-12-23T10:22:00.629Z,98246.13
2022-12-23T10:28:03.842Z,98255.66
2022-12-23T10:34:22.636Z,98252.69
2022-12-23T10:40:48.861Z,98246.13
2022-12-23T10:47:25.350Z,98241.38
2022-12-23T10:53:44.194Z,98229.03
2022-12-23T10:59:46.418Z,98229.91
2022-12-23T11:05:52.292Z,98225.53
2022-12-23T11:12:06.475Z,98216.00
2022-12-23T11:18:20.020Z,98226.22
2022-12-23T11:24:23.533Z,98220.78
2022-12-23T11:30:26.368Z,98216.03
2022-12-23T11:36:30.272Z,98208.31
2022-12-23T11:42:34.888Z,98204.47
2022-12-23T11:48:36.822Z,98194.44
2022-12-23T11:54:39.931Z,98178.59
2022-12-23T12:00:55.384Z,98169.50
2022-12-23T12:06:58.353Z,98168.69
2022-12-23T12:13:05.504Z,98161.19
2022-12-23T12:19:32.087Z,98151.00
2022-12-23T12:25:46.812Z,98137.59
2022-12-23T12:31:56.867Z,98124.22
2022-12-23T12:38:27.185Z,98122.72
2022-12-23T12:44:52.200Z,98113.41
2022-12-23T12:51:14.391Z,98105.25
2022-12-23T12:57:21.095Z,98084.41
2022-12-23T13:04:01.440Z,98088.84
2022-12-23T13:10:27.382Z,98082.91
2022-12-23T13:17:05.261Z,98073.25
2022-12-23T13:30:05.523Z,98070.56
2022-12-23T13:36:29.601Z,98064.69
2022-12-23T13:42:40.291Z,98053.47
2022-12-23T13:49:35.049Z,98043.38
2022-12-23T13:56:09.215Z,98038.44
2022-12-23T14:02:36.020Z,98040.03
2022-12-23T14:08:42.992Z,98033.25
2022-12-23T14:15:16.295Z,98035.44
2022-12-23T14:21:36.123Z,98030.06
2022-12-23T14:28:05.872Z,98034.00
2022-12-23T14:34:22.902Z,98018.84
2022-12-23T14:40:39.721Z,98019.56
2022-12-23T14:46:41.499Z,98020.56
2022-12-23T14:52:58.571Z,98009.09
2022-12-23T14:59:12.497Z,98016.69
2022-12-23T15:05:14.452Z,98020.03
2022-12-23T15:11:28.834Z,98014.22
2022-12-23T15:17:33.555Z,97993.16
2022-12-23T15:23:35.493Z,97982.44
2022-12-23T15:29:37.814Z,97975.44
2022-12-23T15:35:40.221Z,97961.69
2022-12-23T15:41:44.972Z,97958.72
2022-12-23T15:47:46.857Z,97951.69
2022-12-23T15:53:49.043Z,97924.84
2022-12-23T15:59:51.276Z,97911.69
2022-12-23T16:05:53.411Z,97891.78
2022-12-23T16:11:57.054Z,97885.50
2022-12-23T16:18:21.729Z,97883.91
2022-12-23T16:24:23.739Z,97874.66
2022-12-23T16:30:36.956Z,97884.38
2022-12-23T16:36:38.911Z,97864.66
2022-12-23T16:42:40.892Z,97842.41
2022-12-23T16:49:00.735Z,97823.63
2022-12-23T16:55:02.645Z,97800.13
2022-12-23T17:01:04.745Z,97797.47
2022-12-23T17:07:12.202Z,97795.94
2022-12-23T17:13:18.800Z,97802.31
2022-12-23T17:19:27.956Z,97826.50
2022-12-23T17:25:31.367Z,97825.63
2022-12-23T17:31:34.287Z,97822.34
2022-12-23T17:37:38.220Z,97798.88
2022-12-23T17:43:40.113Z,97783.13
2022-12-23T17:49:42.894Z,97784.69
2022-12-23T17:55:45.560Z,97793.66
2022-12-23T18:01:47.874Z,97786.91
2022-12-23T18:07:52.297Z,97780.41
2022-12-23T18:13:54.540Z,97764.25
2022-12-23T18:19:56.471Z,97754.13
2022-12-23T18:25:59.523Z,97744.72
2022-12-23T18:32:01.525Z,97747.25
2022-12-23T18:38:03.450Z,97713.78
2022-12-23T18:44:05.493Z,97700.66
2022-12-23T18:50:08.042Z,97710.59
2022-12-23T18:56:21.620Z,97698.66
2022-12-23T19:02:23.630Z,97710.72
2022-12-23T19:08:27.919Z,97705.81
2022-12-23T19:14:29.970Z,97709.91
2022-12-23T19:20:31.865Z,97706.88
2022-12-23T19:26:33.770Z,97698.91
2022-12-23T19:32:35.719Z,97711.66
2022-12-23T19:38:37.715Z,97714.88
2022-12-23T19:44:39.633Z,97737.88
2022-12-23T19:50:41.519Z,97744.16
2022-12-23T19:56:43.881Z,97727.66
2022-12-23T20:02:45.832Z,97755.47
2022-12-23T20:08:48.837Z,97763.69
2022-12-23T20:14:50.767Z,97768.25
2022-12-23T20:20:52.837Z,97778.53
2022-12-23T20:26:54.733Z,97783.59
2022-12-23T20:32:58.685Z,97786.28
2022-12-23T20:39:02.078Z,97814.09
2022-12-23T20:45:04.619Z,97804.72
2022-12-23T20:51:14.239Z,97813.69
2022-12-23T20:57:16.131Z,97825.06
2022-12-23T21:03:18.156Z,97820.44
2022-12-23T21:09:20.395Z,97831.97
2022-12-23T21:15:23.308Z,97854.66
2022-12-23T21:21:27.787Z,97867.88
2022-12-23T21:27:29.686Z,97867.06
2022-12-23T21:33:31.646Z,97881.97
2022-12-23T21:39:33.546Z,97896.63
2022-12-23T21:45:35.471Z,97898.75
2022-12-23T21:51:40.813Z,97904.69
2022-12-23T21:57:44.353Z,97906.75
2022-12-23T22:03:49.367Z,97902.41
2022-12-23T22:09:51.273Z,97913.53
2022-12-23T22:15:53.438Z,97912.47
2022-12-23T22:21:55.363Z,97933.19
2022-12-23T22:27:57.283Z,97930.97
2022-12-23T22:34:00.119Z,97934.44
2022-12-23T22:40:02.165Z,97944.38
2022-12-23T22:46:04.354Z,97938.34
2022-12-23T22:52:06.281Z,97941.84
2022-12-23T22:58:08.269Z,97947.00
2022-12-23T23:04:10.547Z,97952.59
2022-12-23T23:10:12.855Z,97962.84
2022-12-23T23:16:14.845Z,97969.38
2022-12-23T23:22:19.021Z,97974.25
2022-12-23T23:28:20.921Z,97995.69
2022-12-23T23:34:22.820Z,97998.16
2022-12-23T23:40:24.817Z,98002.00
2022-12-23T23:46:26.803Z,98005.16
2022-12-23T23:52:29.156Z,98015.75
2022-12-23T23:58:31.477Z,98028.34
